Terminal Aerodrome Forecast
Issued by NWS

Home | Current Version | Previous Version | Text Only | Print | Product List | Glossary On
Versions: 1 2 3 4 5 6 7 8 9 10 11 12 13 14 15 16 17 18 19 20 21 22 23 24 25 26
994
FTUS41 KOKX 251936 AAA
TAFSWF
TAF AMD
KSWF 251936Z 2520/2624 36008KT P6SM SKC
     FM260000 VRB03KT P6SM SKC
     FM261600 15006KT P6SM FEW200
     FM261800 18009G15KT P6SM SCT050 SCT250
      AMD NOT SKED=

USA.gov is the U.S. government's official web portal to all federal, state and local government web resources and services.